Stations météo

réclame
Mon MeteoGroup
Apt, France (7657): Température de l'air & dewpoint: 14.08.2018 01:00:00 - 20.08.2018 01:00:00 (CEST)Apt, France (7657): Vitesse du vent & gusts: 14.08.2018 01:00:00 - 20.08.2018 01:00:00 (CEST)Apt, France (7657): Direction du vent: 14.08.2018 01:00:00 - 20.08.2018 01:00:00 (CEST)Apt, France (7657): Quantités de précipitations: 14.08.2018 01:00:00 - 20.08.2018 01:00:00 (CEST)
Date & Time tt [°C] td [°C] ff [km/h] ff [knt] fx [km/h] fx [knt] dd rr [mm]
20.08.2018 01:00:00 13,8 12,4 2 1 8 4 NNW 0,0
20.08.2018 00:00:00 15,7 12,4 4 2 15 8 NW 0,0
19.08.2018 23:00:00 16,9 13,4 8 4 15 8 WNW 0,0
19.08.2018 22:00:00 17,0 13,5 8 4 9 5 WNW 0,0
19.08.2018 21:00:00 19,0 14,0 8 4 15 8 W 0,0
19.08.2018 20:00:00 23,2 14,5 8 4 26 14 W -
19.08.2018 19:00:00 24,8 15,1 13 7 31 17 W 0,0
19.08.2018 18:00:00 25,1 16,0 15 8 29 16 W 0,0
19.08.2018 17:00:00 22,1 15,4 11 6 34 18 NW 0,0
19.08.2018 16:00:00 24,8 19,0 13 7 22 12 NNW 0,0
19.08.2018 15:00:00 21,8 17,8 2 1 28 15 NW 2,0
19.08.2018 14:00:00 26,3 16,0 11 6 24 13 WSW -
19.08.2018 13:00:00 25,1 14,5 4 2 15 8 E 0,0
19.08.2018 12:00:00 26,0 15,1 8 4 21 11 E 0,0
19.08.2018 11:00:00 25,1 15,7 4 2 13 7 SSE 0,0
19.08.2018 10:00:00 24,1 15,0 2 1 5 3 ENE 0,0
19.08.2018 09:00:00 21,0 16,8 0 0 5 3 N 0,0
19.08.2018 08:00:00 15,4 15,1 2 1 5 3 SW -
19.08.2018 07:00:00 11,5 11,0 0 0 5 3 N 0,0
19.08.2018 06:00:00 11,3 10,7 0 0 8 4 N 0,0
19.08.2018 05:00:00 12,1 11,3 4 2 8 4 W 0,0
19.08.2018 04:00:00 12,7 11,8 2 1 9 5 W 0,0
19.08.2018 03:00:00 12,5 11,9 2 1 5 3 W 0,0
19.08.2018 02:00:00 13,0 12,4 4 2 11 6 NE -
19.08.2018 01:00:00 13,3 12,5 0 0 8 4 N 0,0
19.08.2018 00:00:00 14,3 13,3 0 0 11 6 N 0,0
18.08.2018 23:00:00 15,1 14,3 4 2 8 4 SW 0,0
18.08.2018 22:00:00 16,0 15,0 2 1 9 5 WSW 0,0
18.08.2018 21:00:00 16,9 15,9 0 0 8 4 N 0,0
18.08.2018 20:00:00 17,2 15,7 4 2 11 6 NNW -
18.08.2018 19:00:00 17,6 15,2 4 2 22 12 SSW 0,6
18.08.2018 18:00:00 20,7 18,1 9 5 34 18 WNW 4,0
18.08.2018 17:00:00 25,5 15,5 16 9 29 16 WNW 0,0
18.08.2018 16:00:00 25,9 15,6 11 6 28 15 W 0,0
18.08.2018 15:00:00 25,4 15,7 18 10 34 18 W 0,0
18.08.2018 14:00:00 26,5 14,3 8 4 22 12 ESE -
18.08.2018 13:00:00 25,4 12,6 8 4 21 11 SSE 0,0
18.08.2018 12:00:00 25,3 12,8 8 4 18 10 SSE 0,0
18.08.2018 11:00:00 23,9 13,1 8 4 16 9 ESE 0,0
18.08.2018 10:00:00 23,3 14,0 2 1 11 6 NNE 0,0
18.08.2018 09:00:00 20,2 13,9 2 1 5 3 NW 0,0
18.08.2018 08:00:00 15,1 13,1 0 0 5 3 N -
18.08.2018 07:00:00 10,2 9,4 0 0 9 5 N 0,0
18.08.2018 06:00:00 10,3 9,2 4 2 8 4 W 0,0
18.08.2018 05:00:00 11,0 9,9 2 1 8 4 W 0,0
18.08.2018 04:00:00 11,3 10,4 2 1 8 4 WSW 0,0
18.08.2018 03:00:00 12,1 10,2 4 2 11 6 NW 0,0
18.08.2018 02:00:00 12,0 10,6 4 2 8 4 W -
18.08.2018 01:00:00 12,9 10,8 4 2 11 6 NW 0,0
18.08.2018 00:00:00 13,5 10,8 4 2 11 6 WNW 0,0
17.08.2018 23:00:00 14,5 10,9 5 3 11 6 W 0,0
17.08.2018 22:00:00 15,4 10,8 8 4 15 8 WNW 0,0
17.08.2018 21:00:00 17,9 11,2 13 7 22 12 NW 0,0
17.08.2018 20:00:00 20,7 11,1 9 5 21 11 NW -
17.08.2018 19:00:00 23,4 12,4 8 4 37 20 NW 0,0
17.08.2018 18:00:00 23,3 15,6 18 10 37 20 NW 0,0
17.08.2018 17:00:00 24,3 15,8 21 11 46 25 WNW 0,0
17.08.2018 16:00:00 25,7 15,4 22 12 41 22 W 0,0
17.08.2018 15:00:00 26,9 12,2 15 8 29 16 WSW 0,0
17.08.2018 14:00:00 26,6 11,9 11 6 29 16 WSW -
17.08.2018 13:00:00 26,3 14,4 11 6 29 16 W 0,0
17.08.2018 12:00:00 26,1 13,6 9 5 29 16 WNW 0,0
17.08.2018 11:00:00 25,5 14,0 8 4 18 10 NNW 0,0
17.08.2018 10:00:00 24,1 11,8 4 2 11 6 NNE 0,0
17.08.2018 09:00:00 20,8 12,5 0 0 4 2 N 0,0
17.08.2018 08:00:00 14,3 12,0 0 0 5 3 N -
17.08.2018 07:00:00 9,6 8,5 0 0 5 3 N 0,0
17.08.2018 06:00:00 9,8 8,7 0 0 5 3 N 0,0
17.08.2018 05:00:00 10,5 9,3 0 0 4 2 N 0,0
17.08.2018 04:00:00 11,5 10,1 2 1 5 3 W 0,0
17.08.2018 03:00:00 12,4 10,1 2 1 8 4 WNW 0,0
17.08.2018 02:00:00 13,4 10,9 2 1 8 4 WNW -
17.08.2018 01:00:00 15,0 12,9 2 1 11 6 W 0,0
17.08.2018 00:00:00 15,0 13,0 0 0 9 5 N 0,0
16.08.2018 23:00:00 14,9 11,9 8 4 16 9 WNW 0,0
16.08.2018 22:00:00 16,3 12,3 2 1 11 6 N 0,0
16.08.2018 21:00:00 18,5 12,7 2 1 18 10 WNW 0,0
16.08.2018 20:00:00 22,1 12,6 11 6 28 15 W -
16.08.2018 19:00:00 24,4 12,7 15 8 26 14 WSW 0,0
16.08.2018 18:00:00 25,2 11,7 16 9 29 16 WSW 0,0
16.08.2018 17:00:00 25,6 11,7 16 9 37 20 WSW 0,0
16.08.2018 16:00:00 26,2 12,3 16 9 31 17 SW 0,0
16.08.2018 15:00:00 26,2 13,0 13 7 28 15 SW 0,0
16.08.2018 14:00:00 26,0 12,8 11 6 28 15 SSW -
16.08.2018 13:00:00 25,6 12,8 11 6 28 15 S 0,0
16.08.2018 12:00:00 25,1 13,3 11 6 28 15 SE 0,0
16.08.2018 11:00:00 23,8 13,9 11 6 24 13 SE 0,0
16.08.2018 10:00:00 22,6 14,4 11 6 21 11 SE 0,0
16.08.2018 09:00:00 21,6 15,2 2 1 8 4 SSE 0,0
16.08.2018 08:00:00 16,0 14,9 0 0 5 3 N -
16.08.2018 07:00:00 11,5 10,9 2 1 5 3 SW 0,0
16.08.2018 06:00:00 11,3 10,5 0 0 2 1 N 0,0
16.08.2018 05:00:00 11,9 11,1 0 0 4 2 N 0,0
16.08.2018 04:00:00 12,2 11,1 0 0 4 2 N 0,0
16.08.2018 03:00:00 12,8 11,7 0 0 5 3 N 0,0
16.08.2018 02:00:00 13,6 12,2 4 2 8 4 SSW -
16.08.2018 01:00:00 14,0 12,4 4 2 9 5 WSW 0,0
16.08.2018 00:00:00 14,2 12,2 2 1 8 4 WSW 0,0
15.08.2018 23:00:00 15,4 12,7 4 2 5 3 WNW 0,0
15.08.2018 22:00:00 17,2 12,9 4 2 16 9 NE 0,0
15.08.2018 21:00:00 19,6 13,5 9 5 16 9 WSW 0,0
15.08.2018 20:00:00 23,1 13,6 8 4 31 17 W -
15.08.2018 19:00:00 24,4 12,7 18 10 31 17 W 0,0
15.08.2018 18:00:00 25,4 12,3 16 9 37 20 W 0,0
15.08.2018 17:00:00 25,9 13,1 21 11 41 22 WSW 0,0
15.08.2018 16:00:00 26,1 14,5 18 10 35 19 WSW 0,0
15.08.2018 15:00:00 26,1 13,2 16 9 29 16 SW 0,0
15.08.2018 14:00:00 26,2 13,0 13 7 28 15 W -
15.08.2018 13:00:00 25,8 12,3 11 6 28 15 W 0,0
15.08.2018 12:00:00 25,2 11,7 11 6 21 11 WNW 0,0
15.08.2018 11:00:00 24,0 12,9 5 3 21 11 NNW 0,0
15.08.2018 10:00:00 21,9 12,4 8 4 15 8 NNW 0,0
15.08.2018 09:00:00 20,2 10,9 5 3 15 8 NW 0,0
15.08.2018 08:00:00 17,1 11,8 8 4 13 7 WNW -
15.08.2018 07:00:00 13,2 10,2 11 6 15 8 WNW 0,0
15.08.2018 06:00:00 12,4 9,4 4 2 16 9 WNW 0,0
15.08.2018 05:00:00 14,4 10,2 13 7 21 11 W 0,0
15.08.2018 04:00:00 14,9 10,5 15 8 22 12 W 0,0
15.08.2018 03:00:00 15,4 10,8 16 9 22 12 W 0,0
15.08.2018 02:00:00 16,2 10,7 11 6 29 16 WNW -
15.08.2018 01:00:00 16,7 11,0 18 10 34 18 NW 0,0
15.08.2018 00:00:00 17,0 11,3 16 9 39 21 NW 0,0
14.08.2018 23:00:00 17,3 11,1 18 10 29 16 NW 0,0
14.08.2018 22:00:00 17,8 10,9 11 6 28 15 NW 0,0
14.08.2018 21:00:00 18,6 10,7 15 8 34 18 NNW 0,0
14.08.2018 20:00:00 21,0 11,3 22 12 41 22 NNW -
14.08.2018 19:00:00 22,5 11,9 24 13 44 24 NNW 0,0
14.08.2018 18:00:00 23,3 12,0 29 16 52 28 NNW 0,0
14.08.2018 17:00:00 23,8 12,7 29 16 54 29 NNW 0,0
14.08.2018 16:00:00 24,0 12,9 26 14 48 26 NNW 0,0
14.08.2018 15:00:00 23,4 12,1 24 13 48 26 NNW 0,0
14.08.2018 14:00:00 23,6 12,9 26 14 48 26 NNW -
14.08.2018 13:00:00 22,6 13,1 28 15 44 24 NNW 0,0
14.08.2018 12:00:00 21,5 13,1 18 10 37 20 NNW 0,0
14.08.2018 11:00:00 19,5 12,7 18 10 44 24 NW 0,0
14.08.2018 10:00:00 19,3 13,2 24 13 41 22 NW 0,0
14.08.2018 09:00:00 17,9 12,8 18 10 29 16 NNW 0,0
14.08.2018 08:00:00 16,6 13,3 9 5 22 12 NW -
14.08.2018 07:00:00 14,3 12,7 9 5 18 10 WNW 0,0
14.08.2018 06:00:00 14,9 12,8 9 5 24 13 WNW 0,2
14.08.2018 05:00:00 14,3 13,2 9 5 15 8 NNW 0,0
14.08.2018 04:00:00 13,0 12,4 4 2 9 5 NW 0,0
14.08.2018 03:00:00 13,9 13,3 0 0 9 5 N 0,0
14.08.2018 02:00:00 14,3 13,7 5 3 16 9 W -
14.08.2018 01:00:00 15,2 14,4 5 3 9 5 W 0,0

tt = Température de l'air
td = dewpoint
ff = Vitesse du vent
fx = gusts
dd = Direction du vent
rr = Quantités de précipitations

stations d'obs. à proximité